Time;durP1;ratioP1;P1;durP2;ratioP2;P2;SDS_P1;SDS_P2;PMS_P1;PMS_P2;Temp;Humidity;BMP_temperature;BMP_pressure;BME280_temperature;BME280_humidity;BME280_pressure;Samples;Min_cycle;Max_cycle;Signal;HPM_P1;HPM_P2
2021/03/20 00:00:38;;;;;;;3.30;1.73;;;-1.00;99.90;;;;;;5052786;28;20032;-73
2021/03/20 00:03:04;;;;;;;6.57;2.08;;;-1.00;99.90;;;;;;5053788;28;20020;-73
2021/03/20 00:05:30;;;;;;;3.40;2.15;;;-1.10;99.90;;;;;;5086298;28;20437;-73
2021/03/20 00:07:56;;;;;;;4.60;2.25;;;-1.10;99.90;;;;;;5052236;28;20037;-73
2021/03/20 00:10:24;;;;;;;2.03;1.58;;;-1.10;99.90;;;;;;5053354;28;20025;-73
2021/03/20 00:12:52;;;;;;;2.97;1.88;;;-1.20;99.90;;;;;;5053095;28;20029;-72
2021/03/20 00:15:22;;;;;;;3.70;2.13;;;-1.20;99.90;;;;;;5053673;28;20044;-73
2021/03/20 00:17:48;;;;;;;3.05;1.83;;;-1.20;99.90;;;;;;5053498;28;20033;-73
2021/03/20 00:20:19;;;;;;;5.32;2.22;;;-1.30;99.90;;;;;;5053360;28;20024;-73
2021/03/20 00:22:44;;;;;;;3.30;1.70;;;-1.30;99.90;;;;;;5053001;28;20025;-73
2021/03/20 00:25:11;;;;;;;4.45;2.72;;;-1.30;99.90;;;;;;5053369;28;20021;-73
2021/03/20 00:27:37;;;;;;;3.88;2.58;;;-1.30;99.90;;;;;;5053254;28;20027;-73
2021/03/20 00:30:04;;;;;;;4.57;2.42;;;-1.30;99.90;;;;;;5053090;28;20100;-74
2021/03/20 00:32:29;;;;;;;3.45;2.05;;;-1.40;99.90;;;;;;5052993;28;20388;-73
2021/03/20 00:34:55;;;;;;;3.40;2.03;;;-1.40;99.90;;;;;;5053341;28;20120;-73
2021/03/20 00:37:21;;;;;;;3.72;2.05;;;-1.50;99.90;;;;;;5052618;28;20029;-74
2021/03/20 00:39:47;;;;;;;2.70;1.88;;;-1.50;99.90;;;;;;5052905;28;20036;-73
2021/03/20 00:42:12;;;;;;;4.90;2.00;;;-1.60;99.90;;;;;;5052489;28;20068;-74
2021/03/20 00:44:38;;;;;;;2.95;1.80;;;-1.70;99.90;;;;;;5053039;28;20473;-73
2021/03/20 00:47:05;;;;;;;2.38;1.73;;;-1.70;99.90;;;;;;5052519;28;20029;-73
2021/03/20 00:49:31;;;;;;;4.03;2.50;;;-1.80;99.90;;;;;;5053015;28;20037;-74
2021/03/20 00:51:57;;;;;;;3.45;1.98;;;-1.80;99.90;;;;;;5051042;28;20033;-73
2021/03/20 00:54:24;;;;;;;3.35;2.20;;;-1.80;99.90;;;;;;5052906;28;20417;-73
2021/03/20 00:56:49;;;;;;;3.58;2.45;;;-1.80;99.90;;;;;;5052254;28;20494;-74
2021/03/20 00:59:15;;;;;;;4.68;2.78;;;-1.80;99.90;;;;;;5051379;28;20029;-73
2021/03/20 01:01:41;;;;;;;4.30;2.65;;;-1.80;99.90;;;;;;5051857;28;20435;-73
2021/03/20 01:04:06;;;;;;;4.07;2.50;;;-1.80;99.90;;;;;;5052090;28;20029;-73
2021/03/20 01:06:32;;;;;;;3.92;2.60;;;-1.80;99.90;;;;;;5052343;28;20029;-73
2021/03/20 01:08:59;;;;;;;3.85;2.50;;;-1.80;99.90;;;;;;5052550;28;20523;-73
2021/03/20 01:11:27;;;;;;;4.40;2.30;;;-1.90;99.90;;;;;;5051650;28;20036;-75
2021/03/20 01:13:54;;;;;;;4.90;2.35;;;-1.90;99.90;;;;;;5052552;28;20490;-73
2021/03/20 01:16:19;;;;;;;3.60;2.55;;;-1.90;99.90;;;;;;5052107;28;20040;-73
2021/03/20 01:18:46;;;;;;;2.83;2.28;;;-1.90;99.90;;;;;;5052553;28;20033;-73
2021/03/20 01:21:12;;;;;;;3.28;2.15;;;-1.90;99.90;;;;;;5050528;28;20041;-73
2021/03/20 01:23:38;;;;;;;3.65;1.95;;;-2.00;99.90;;;;;;5052363;28;20029;-73
2021/03/20 01:26:04;;;;;;;4.15;2.28;;;-2.00;99.90;;;;;;5052159;28;20036;-74
2021/03/20 01:28:33;;;;;;;2.47;1.60;;;-2.00;99.90;;;;;;5051938;28;20033;-74
2021/03/20 01:31:00;;;;;;;3.58;2.13;;;-2.00;99.90;;;;;;5051649;28;20033;-74
2021/03/20 01:33:27;;;;;;;4.43;2.00;;;-2.00;99.90;;;;;;5052168;28;20515;-73
2021/03/20 01:35:53;;;;;;;3.03;1.80;;;-2.00;99.90;;;;;;5051985;28;20021;-74
2021/03/20 01:38:20;;;;;;;5.40;1.85;;;-2.10;99.90;;;;;;5033849;28;20028;-73
2021/03/20 01:40:51;;;;;;;1.90;1.40;;;-2.10;99.90;;;;;;5051381;28;20029;-73
2021/03/20 01:43:20;;;;;;;3.72;1.90;;;-2.20;99.90;;;;;;5052065;28;20033;-73
2021/03/20 01:45:46;;;;;;;4.38;1.83;;;-2.30;99.90;;;;;;5051981;28;20108;-73
2021/03/20 01:48:26;;;;;;;3.38;1.55;;;-2.30;99.90;;;;;;5051676;28;20124;-73
2021/03/20 01:50:51;;;;;;;2.42;1.42;;;-2.40;99.90;;;;;;5051423;28;20033;-73
2021/03/20 01:53:30;;;;;;;2.15;1.60;;;-2.30;99.90;;;;;;5051840;28;20036;-73
2021/03/20 01:55:57;;;;;;;4.95;1.33;;;-2.40;99.90;;;;;;5051822;28;20617;-74
2021/03/20 01:58:24;;;;;;;3.08;1.30;;;-2.30;99.90;;;;;;5049702;28;20103;-74
2021/03/20 02:00:56;;;;;;;2.20;1.17;;;-2.30;99.90;;;;;;5048862;28;20044;-74
2021/03/20 02:03:21;;;;;;;1.88;1.48;;;-2.30;99.90;;;;;;5050614;28;20111;-73
2021/03/20 02:05:47;;;;;;;2.78;1.42;;;-2.30;99.90;;;;;;5050216;28;20104;-73
2021/03/20 02:08:15;;;;;;;3.75;1.65;;;-2.30;99.90;;;;;;5051352;28;20472;-74
2021/03/20 02:10:44;;;;;;;2.05;1.35;;;-2.30;99.90;;;;;;5050843;28;20071;-73
2021/03/20 02:13:24;;;;;;;1.70;1.20;;;-2.30;99.90;;;;;;5050319;28;20108;-74
2021/03/20 02:16:09;;;;;;;1.88;1.10;;;-2.30;99.90;;;;;;5050575;28;20488;-73
2021/03/20 02:18:47;;;;;;;5.20;1.58;;;-2.30;99.90;;;;;;5051230;28;20021;-73
2021/03/20 02:21:24;;;;;;;2.33;1.20;;;-2.30;99.90;;;;;;5083008;28;20112;-75
2021/03/20 02:24:09;;;;;;;1.20;1.00;;;-2.30;99.90;;;;;;5051175;28;20060;-75
2021/03/20 02:27:02;;;;;;;4.55;1.50;;;-2.40;99.90;;;;;;5050991;28;20617;-73
2021/03/20 02:29:49;;;;;;;2.03;1.20;;;-2.40;99.90;;;;;;5049900;28;20036;-74
2021/03/20 02:32:37;;;;;;;2.70;1.20;;;-2.40;99.90;;;;;;5050637;28;20033;-74
2021/03/20 02:35:33;;;;;;;4.38;1.20;;;-2.50;99.90;;;;;;5051152;28;20025;-74
2021/03/20 02:37:58;;;;;;;;;;;-2.50;99.90;;;;;;5047563;28;20045;-75
2021/03/20 02:40:36;;;;;;;2.97;1.30;;;-2.50;99.90;;;;;;5050768;28;19912;-75
2021/03/20 02:43:24;;;;;;;3.22;1.15;;;-2.50;99.90;;;;;;5050833;28;20032;-74
2021/03/20 02:46:31;;;;;;;2.60;0.93;;;-2.60;99.90;;;;;;5050926;28;20028;-74
2021/03/20 02:49:07;;;;;;;2.33;1.40;;;-2.60;99.90;;;;;;5030315;28;20061;-74
2021/03/20 02:51:45;;;;;;;2.03;0.98;;;-2.60;99.90;;;;;;5050485;28;20036;-74
2021/03/20 02:54:40;;;;;;;4.03;1.48;;;-2.70;99.90;;;;;;5050821;28;20112;-75
2021/03/20 02:57:25;;;;;;;3.35;1.30;;;-2.70;99.90;;;;;;5050411;28;20036;-74
2021/03/20 02:59:55;;;;;;;4.22;0.88;;;-2.70;99.90;;;;;;5050654;28;20055;-74
2021/03/20 03:02:25;;;;;;;2.90;1.23;;;-2.80;99.90;;;;;;5050320;28;20041;-73
2021/03/20 03:05:01;;;;;;;1.85;1.00;;;-2.90;99.90;;;;;;5049476;28;20033;-74
2021/03/20 03:07:36;;;;;;;6.03;1.17;;;-2.90;99.90;;;;;;5050221;28;20488;-74
2021/03/20 03:10:33;;;;;;;1.38;1.00;;;-3.00;99.90;;;;;;5050378;28;20037;-74
2021/03/20 03:13:07;;;;;;;3.67;1.23;;;-3.00;99.90;;;;;;5050581;28;20025;-74
2021/03/20 03:15:36;;;;;;;2.17;0.93;;;-3.00;99.90;;;;;;5050682;28;20670;-75
2021/03/20 03:18:08;;;;;;;1.38;0.90;;;-3.00;99.90;;;;;;5050103;28;20379;-74
2021/03/20 03:20:41;;;;;;;2.72;1.00;;;-3.00;99.90;;;;;;5050272;28;20041;-74
2021/03/20 03:23:11;;;;;;;3.17;1.17;;;-3.00;99.90;;;;;;5050520;28;20435;-74
2021/03/20 03:25:41;;;;;;;3.80;1.00;;;-3.00;99.90;;;;;;5050629;28;20036;-74
2021/03/20 03:28:10;;;;;;;2.28;1.08;;;-3.00;99.90;;;;;;5052000;28;20527;-74
2021/03/20 03:30:36;;;;;;;1.08;0.98;;;-3.10;99.90;;;;;;5054050;28;20032;-74
2021/03/20 03:33:24;;;;;;;4.57;1.05;;;-3.10;99.90;;;;;;5054507;28;20128;-74
2021/03/20 03:36:00;;;;;;;2.65;1.48;;;-3.10;99.90;;;;;;5054489;28;20033;-74
2021/03/20 03:38:29;;;;;;;1.50;0.80;;;-3.10;99.90;;;;;;5054121;28;20443;-74
2021/03/20 03:41:05;;;;;;;2.28;1.30;;;-3.10;99.90;;;;;;5053559;28;20115;-74
2021/03/20 03:43:31;;;;;;;3.65;0.90;;;-3.10;99.90;;;;;;5054460;28;20036;-74
2021/03/20 03:45:56;;;;;;;2.88;1.23;;;-3.10;99.90;;;;;;5054336;28;20080;-74
2021/03/20 03:48:24;;;;;;;4.97;1.15;;;-3.10;99.90;;;;;;5053788;28;20033;-74
2021/03/20 03:50:50;;;;;;;2.45;1.10;;;-3.10;99.90;;;;;;5048910;28;20029;-73
2021/03/20 03:53:20;;;;;;;1.25;0.70;;;-3.10;99.90;;;;;;5040875;28;20085;-73
2021/03/20 03:55:46;;;;;;;1.75;1.00;;;-3.20;99.90;;;;;;5053827;28;20707;-74
2021/03/20 03:58:38;;;;;;;1.45;0.70;;;-3.20;99.90;;;;;;5053549;28;20037;-74
2021/03/20 04:01:16;;;;;;;1.35;1.00;;;-3.30;99.90;;;;;;5053365;28;20036;-73
2021/03/20 04:03:53;;;;;;;2.65;1.05;;;-3.30;99.90;;;;;;5044057;28;20033;-73
2021/03/20 04:06:46;;;;;;;2.85;1.10;;;-3.30;99.90;;;;;;5053595;28;20028;-73
2021/03/20 04:09:24;;;;;;;3.10;0.98;;;-3.40;99.90;;;;;;5085950;28;20067;-73
2021/03/20 04:12:11;;;;;;;2.15;1.20;;;-3.40;99.90;;;;;;5053182;28;20104;-73
2021/03/20 04:14:58;;;;;;;2.53;1.30;;;-3.30;99.90;;;;;;5053840;28;20049;-73
2021/03/20 04:17:34;;;;;;;3.33;1.20;;;-3.40;99.90;;;;;;5053269;28;20033;-74
2021/03/20 04:20:09;;;;;;;1.98;1.15;;;-3.30;99.90;;;;;;5053669;28;20056;-73
2021/03/20 04:22:34;;;;;;;;;;;-3.30;99.90;;;;;;5053586;28;20047;-73
2021/03/20 04:25:25;;;;;;;2.08;1.27;;;-3.30;99.90;;;;;;5053417;28;20376;-73
2021/03/20 04:28:04;;;;;;;2.22;1.50;;;-3.20;99.90;;;;;;5052851;28;20029;-73
2021/03/20 04:30:33;;;;;;;1.83;1.20;;;-3.20;99.90;;;;;;5052874;28;20036;-73
2021/03/20 04:33:15;;;;;;;3.63;2.03;;;-3.20;99.90;;;;;;5053080;28;20052;-74
2021/03/20 04:35:48;;;;;;;2.83;1.35;;;-3.10;99.90;;;;;;5053305;28;20021;-74
2021/03/20 04:38:14;;;;;;;3.60;1.73;;;-3.10;99.90;;;;;;5052561;28;20017;-73
2021/03/20 04:40:44;;;;;;;3.10;1.17;;;-3.10;99.90;;;;;;5051630;28;20049;-73
2021/03/20 04:43:23;;;;;;;2.75;1.52;;;-3.10;99.90;;;;;;5053163;28;20025;-73
2021/03/20 04:46:02;;;;;;;2.08;1.75;;;-3.10;99.90;;;;;;5053274;28;20041;-74
2021/03/20 04:48:37;;;;;;;2.83;1.33;;;-3.10;99.90;;;;;;5053053;28;20033;-73
2021/03/20 04:51:24;;;;;;;5.60;2.15;;;-3.10;99.90;;;;;;5052512;28;20119;-73
2021/03/20 04:53:52;;;;;;;4.15;1.63;;;-3.10;99.90;;;;;;5053042;28;20051;-73
2021/03/20 04:56:20;;;;;;;3.03;1.40;;;-3.10;99.90;;;;;;5052462;28;20059;-73
2021/03/20 04:58:57;;;;;;;2.88;1.63;;;-3.10;99.90;;;;;;5052973;28;20029;-73
2021/03/20 05:01:41;;;;;;;2.78;1.48;;;-3.10;99.90;;;;;;5051335;28;20024;-74
2021/03/20 05:04:25;;;;;;;3.65;1.70;;;-3.10;99.90;;;;;;5033004;28;20037;-73
2021/03/20 05:06:51;;;;;;;2.35;1.70;;;-3.10;99.90;;;;;;5042191;28;20045;-73
2021/03/20 05:09:29;;;;;;;3.97;1.60;;;-3.10;99.90;;;;;;5052296;28;20079;-73
2021/03/20 05:11:58;;;;;;;2.47;1.73;;;-3.10;99.90;;;;;;5051784;28;20120;-73
2021/03/20 05:14:36;;;;;;;3.97;2.40;;;-3.10;99.90;;;;;;5037758;28;20433;-73
2021/03/20 05:17:03;;;;;;;2.13;1.60;;;-3.10;99.90;;;;;;5052177;28;20075;-73
2021/03/20 05:19:29;;;;;;;6.43;2.33;;;-3.10;99.90;;;;;;5052688;28;20035;-73
2021/03/20 05:21:56;;;;;;;6.25;3.25;;;-3.10;99.90;;;;;;5052118;28;20039;-73
2021/03/20 05:24:27;;;;;;;4.57;2.00;;;-3.10;99.90;;;;;;5052201;28;20126;-73
2021/03/20 05:26:53;;;;;;;3.38;2.15;;;-3.10;99.90;;;;;;5052054;28;20055;-74
2021/03/20 05:29:20;;;;;;;6.97;2.13;;;-3.10;99.90;;;;;;5052287;28;20535;-73
2021/03/20 05:31:46;;;;;;;3.67;2.33;;;-3.20;99.90;;;;;;5051783;28;20392;-73
2021/03/20 05:34:27;;;;;;;3.83;2.17;;;-3.20;99.90;;;;;;5052558;28;20040;-73
2021/03/20 05:36:53;;;;;;;7.90;2.88;;;-3.20;99.90;;;;;;5049012;28;20021;-73
2021/03/20 05:39:20;;;;;;;7.07;2.75;;;-3.30;99.90;;;;;;5051990;28;20048;-73
2021/03/20 05:42:01;;;;;;;5.28;2.50;;;-3.30;99.90;;;;;;5051445;28;20036;-73
2021/03/20 05:44:48;;;;;;;4.20;2.38;;;-3.30;99.90;;;;;;5044945;28;20032;-73
2021/03/20 05:47:42;;;;;;;4.28;2.53;;;-3.30;99.90;;;;;;5050407;28;20037;-73
2021/03/20 05:50:40;;;;;;;5.05;2.13;;;-3.30;99.90;;;;;;5050748;28;20036;-74
2021/03/20 05:53:18;;;;;;;5.53;2.40;;;-3.20;99.90;;;;;;5052059;28;20039;-73
2021/03/20 05:55:54;;;;;;;4.50;2.70;;;-3.20;99.90;;;;;;5052202;28;20021;-74
2021/03/20 05:58:57;;;;;;;6.13;3.08;;;-3.10;99.90;;;;;;5051545;28;20048;-73
2021/03/20 06:01:28;;;;;;;10.82;3.15;;;-3.00;99.90;;;;;;5008932;28;20558;-73
2021/03/20 06:04:17;;;;;;;5.40;3.08;;;-2.90;99.90;;;;;;5044572;28;20033;-73
2021/03/20 06:07:14;;;;;;;7.70;3.22;;;-2.80;99.90;;;;;;5051151;28;20056;-73
2021/03/20 06:10:21;;;;;;;7.68;3.40;;;-2.70;99.90;;;;;;5051926;28;20033;-73
2021/03/20 06:13:03;;;;;;;4.60;3.00;;;-2.70;99.90;;;;;;5046191;28;20052;-73
2021/03/20 06:16:10;;;;;;;5.30;2.90;;;-2.70;99.90;;;;;;5051856;28;20108;-73
2021/03/20 06:19:10;;;;;;;5.15;3.03;;;-2.70;99.90;;;;;;5051617;28;20033;-73
2021/03/20 06:21:48;;;;;;;4.60;3.20;;;-2.70;99.90;;;;;;5051188;28;20032;-75
2021/03/20 06:24:33;;;;;;;8.27;3.33;;;-2.60;99.90;;;;;;5051040;28;20021;-75
2021/03/20 06:27:01;;;;;;;9.88;3.90;;;-2.60;99.90;;;;;;5050476;28;20486;-74
2021/03/20 06:29:32;;;;;;;9.77;3.92;;;-2.60;99.90;;;;;;5049714;28;20523;-75
2021/03/20 06:32:19;;;;;;;6.50;3.05;;;-2.70;99.90;;;;;;5050438;28;20028;-75
2021/03/20 06:35:07;;;;;;;3.85;2.53;;;-2.60;99.90;;;;;;5051439;28;20021;-74
2021/03/20 06:37:38;;;;;;;4.05;2.65;;;-2.60;99.90;;;;;;5050158;28;20079;-75
2021/03/20 06:40:25;;;;;;;7.38;3.70;;;-2.50;99.90;;;;;;5049427;28;20029;-74
2021/03/20 06:42:53;;;;;;;9.95;4.22;;;-2.50;99.90;;;;;;5047827;28;20041;-74
2021/03/20 06:45:23;;;;;;;5.53;3.05;;;-2.40;99.90;;;;;;5050083;28;20044;-75
2021/03/20 06:47:57;;;;;;;8.27;3.75;;;-2.30;99.90;;;;;;5049231;28;20094;-75
2021/03/20 06:50:27;;;;;;;8.90;3.75;;;-2.30;99.90;;;;;;5042159;28;20021;-74
2021/03/20 06:52:57;;;;;;;5.75;3.47;;;-2.20;99.90;;;;;;5050266;28;20124;-75
2021/03/20 06:55:29;;;;;;;6.28;3.42;;;-2.10;99.90;;;;;;5049681;28;20090;-74
2021/03/20 06:57:57;;;;;;;7.47;3.13;;;-2.00;99.90;;;;;;5050409;28;20442;-75
2021/03/20 07:00:32;;;;;;;6.68;3.42;;;-2.00;99.90;;;;;;5050617;28;20400;-76
2021/03/20 07:03:01;;;;;;;;;;;-1.90;99.90;;;;;;5036149;28;20030;-74
2021/03/20 07:05:52;;;;;;;7.18;3.42;;;-1.80;99.90;;;;;;5041414;28;19915;-75
2021/03/20 07:08:27;;;;;;;8.40;3.55;;;-1.70;99.90;;;;;;5048540;28;20033;-74
2021/03/20 07:10:55;;;;;;;5.43;3.35;;;-1.50;99.90;;;;;;5049588;28;20166;-75
2021/03/20 07:13:30;;;;;;;7.50;2.92;;;-1.50;99.90;;;;;;5050080;28;20032;-76
2021/03/20 07:16:04;;;;;;;5.40;2.95;;;-1.50;99.90;;;;;;5049310;28;20033;-75
2021/03/20 07:18:39;;;;;;;5.00;3.00;;;-1.40;99.90;;;;;;5049714;28;20037;-75
2021/03/20 07:21:31;;;;;;;8.32;3.75;;;-1.50;99.90;;;;;;5082284;28;20029;-75
2021/03/20 07:24:01;;;;;;;7.13;3.53;;;-1.70;99.90;;;;;;5044361;28;20033;-74
2021/03/20 07:26:28;;;;;;;4.85;2.83;;;-1.60;99.90;;;;;;5050011;28;20036;-74
2021/03/20 07:28:58;;;;;;;4.13;2.83;;;-1.40;99.90;;;;;;5050362;28;20037;-75
2021/03/20 07:31:25;;;;;;;4.13;2.60;;;-1.20;99.90;;;;;;5049754;28;20395;-75
2021/03/20 07:33:53;;;;;;;6.97;2.40;;;-1.10;99.90;;;;;;5082622;28;20032;-74
2021/03/20 07:36:30;;;;;;;4.18;2.13;;;-1.20;99.90;;;;;;5049472;28;20456;-75
2021/03/20 07:39:24;;;;;;;2.58;1.60;;;-1.30;99.90;;;;;;5050377;28;20047;-75
2021/03/20 07:42:00;;;;;;;4.03;1.60;;;-1.40;99.90;;;;;;5049922;28;20032;-76
2021/03/20 07:44:29;;;;;;;5.22;2.13;;;-1.60;99.90;;;;;;5050116;28;20036;-75
2021/03/20 07:46:57;;;;;;;2.78;1.45;;;-1.60;99.90;;;;;;5049783;28;20112;-76
2021/03/20 07:49:30;;;;;;;2.08;1.60;;;-1.60;99.90;;;;;;5082194;28;20071;-75
2021/03/20 07:52:00;;;;;;;4.70;1.75;;;-1.60;99.90;;;;;;5049321;28;20048;-75
2021/03/20 07:54:28;;;;;;;2.72;1.25;;;-1.50;99.90;;;;;;5050096;28;20107;-75
2021/03/20 07:57:09;;;;;;;2.53;1.60;;;-1.50;99.90;;;;;;5065055;28;20112;-74
2021/03/20 07:59:40;;;;;;;5.22;2.00;;;-1.30;99.90;;;;;;5047500;28;20488;-76
2021/03/20 08:02:10;;;;;;;5.72;2.67;;;-0.80;99.90;;;;;;5045245;28;20112;-75
2021/03/20 08:04:51;;;;;;;3.97;1.80;;;-0.20;99.90;;;;;;5049117;28;20029;-73
2021/03/20 08:07:33;;;;;;;5.28;2.40;;;0.40;99.90;;;;;;5047942;28;20067;-73
2021/03/20 08:10:06;;;;;;;5.78;1.70;;;0.60;99.90;;;;;;5075146;28;20128;-73
2021/03/20 08:12:32;;;;;;;4.00;1.95;;;0.70;99.90;;;;;;5075985;28;20029;-75
2021/03/20 08:15:03;;;;;;;3.85;1.60;;;1.10;99.90;;;;;;5050288;28;20577;-75
2021/03/20 08:17:29;;;;;;;4.45;2.17;;;1.50;99.90;;;;;;5049780;28;20025;-75
2021/03/20 08:19:55;;;;;;;4.75;2.10;;;1.70;99.90;;;;;;5053184;28;20558;-72
2021/03/20 08:22:37;;;;;;;4.00;1.98;;;1.80;99.90;;;;;;5051011;28;20616;-74
2021/03/20 08:25:17;;;;;;;2.72;1.45;;;2.00;99.90;;;;;;5052672;28;20033;-75
2021/03/20 08:28:10;;;;;;;4.05;1.52;;;2.10;99.90;;;;;;5075671;28;20040;-74
2021/03/20 08:31:04;;;;;;;4.00;1.92;;;2.00;99.90;;;;;;5045709;28;20033;-73
2021/03/20 08:33:46;;;;;;;2.35;1.60;;;1.90;99.90;;;;;;5042239;28;20129;-74
2021/03/20 08:36:17;;;;;;;7.50;2.78;;;1.80;99.90;;;;;;5050718;28;20021;-73
2021/03/20 08:38:55;;;;;;;3.45;1.92;;;1.70;99.90;;;;;;5048934;28;20082;-73
2021/03/20 08:41:52;;;;;;;3.92;1.88;;;1.60;99.90;;;;;;5083698;28;20087;-74
2021/03/20 08:44:24;;;;;;;4.40;2.03;;;1.40;99.90;;;;;;5051953;28;20399;-72
2021/03/20 08:47:18;;;;;;;3.08;1.50;;;1.20;99.90;;;;;;5052382;28;20079;-75
2021/03/20 08:50:16;;;;;;;3.85;1.80;;;1.10;99.90;;;;;;5048980;28;20025;-73
2021/03/20 08:53:03;;;;;;;6.20;3.03;;;1.00;99.90;;;;;;5042294;28;20519;-73
2021/03/20 08:55:38;;;;;;;4.25;2.20;;;0.70;99.90;;;;;;5060831;28;20025;-74
2021/03/20 08:58:22;;;;;;;3.50;1.80;;;0.40;99.90;;;;;;5047830;28;20062;-75
2021/03/20 09:01:01;;;;;;;4.00;1.88;;;0.10;99.90;;;;;;5048651;28;20017;-74
2021/03/20 09:03:39;;;;;;;2.92;1.60;;;-0.10;99.90;;;;;;5048245;28;20376;-74
2021/03/20 09:06:30;;;;;;;3.35;1.52;;;-0.40;99.90;;;;;;5050804;28;20029;-74
2021/03/20 09:09:11;;;;;;;4.18;1.83;;;-0.50;99.90;;;;;;5052293;28;20048;-73
2021/03/20 09:12:01;;;;;;;3.08;2.00;;;-0.50;99.90;;;;;;5047463;28;20029;-74
2021/03/20 09:14:38;;;;;;;2.53;1.20;;;-0.50;99.90;;;;;;5049964;28;20021;-74
2021/03/20 09:17:14;;;;;;;3.08;1.60;;;-0.50;99.90;;;;;;5050477;28;20098;-74
2021/03/20 09:19:52;;;;;;;3.03;1.50;;;-0.50;99.90;;;;;;5052044;28;20528;-73
2021/03/20 09:22:21;;;;;;;2.75;1.70;;;-0.40;99.90;;;;;;5051490;28;20033;-73
2021/03/20 09:25:20;;;;;;;3.17;1.85;;;-0.30;99.90;;;;;;5049229;28;20083;-73
2021/03/20 09:28:15;;;;;;;2.63;1.73;;;-0.20;99.90;;;;;;5049812;28;20032;-73
2021/03/20 09:30:47;;;;;;;3.45;1.85;;;-0.10;99.90;;;;;;5051019;28;20206;-73
2021/03/20 09:33:30;;;;;;;3.80;1.70;;;0.10;99.90;;;;;;5049524;28;20037;-73
2021/03/20 09:36:05;;;;;;;2.63;1.75;;;0.20;99.90;;;;;;5049394;28;20036;-73
2021/03/20 09:38:34;;;;;;;;;;;0.40;99.90;;;;;;5047972;28;20487;-73
2021/03/20 09:41:15;;;;;;;4.07;1.58;;;0.40;99.90;;;;;;5051820;28;19916;-72
2021/03/20 09:43:48;;;;;;;3.13;1.55;;;0.50;99.90;;;;;;5051280;28;20025;-72
2021/03/20 09:46:40;;;;;;;5.15;1.55;;;0.50;99.90;;;;;;5048889;28;20528;-74
2021/03/20 09:49:11;;;;;;;3.67;1.42;;;0.40;99.90;;;;;;5081452;28;20025;-73
2021/03/20 09:51:49;;;;;;;3.72;1.65;;;0.30;99.90;;;;;;5046850;28;20061;-73
2021/03/20 09:54:39;;;;;;;2.42;1.60;;;0.40;99.90;;;;;;5047461;28;20029;-73
2021/03/20 09:59:36;;;;;;;1.80;1.40;;;0.60;98.00;;;;;;5042963;28;20070;-72
2021/03/20 10:02:27;;;;;;;2.53;1.60;;;0.60;98.70;;;;;;5045918;28;20116;-72
2021/03/20 10:04:56;;;;;;;4.22;1.30;;;0.60;99.90;;;;;;5043683;28;20075;-74
2021/03/20 10:07:22;;;;;;;3.78;1.55;;;0.70;99.90;;;;;;5042322;28;20028;-73
2021/03/20 10:09:59;;;;;;;2.15;1.50;;;0.80;99.90;;;;;;5068670;28;20036;-73
2021/03/20 10:12:40;;;;;;;3.40;1.63;;;0.90;99.90;;;;;;5036158;28;20032;-73
2021/03/20 10:15:16;;;;;;;2.83;1.40;;;0.90;99.90;;;;;;5041773;28;20020;-74
2021/03/20 10:18:11;;;;;;;3.55;1.65;;;0.90;99.90;;;;;;5041823;28;20974;-74
2021/03/20 10:20:43;;;;;;;1.83;1.60;;;0.90;99.90;;;;;;5036481;28;20480;-74
2021/03/20 10:23:14;;;;;;;3.67;1.95;;;0.90;99.90;;;;;;5045661;28;20384;-75
2021/03/20 10:25:48;;;;;;;2.40;1.77;;;0.90;99.90;;;;;;5042646;28;20017;-73
2021/03/20 10:28:15;;;;;;;2.53;1.15;;;0.80;99.90;;;;;;5045190;28;20091;-74
2021/03/20 10:30:53;;;;;;;3.47;1.42;;;0.70;99.40;;;;;;5073421;28;20155;-74
2021/03/20 10:33:32;;;;;;;2.40;1.35;;;0.70;99.90;;;;;;5039490;28;20032;-73
2021/03/20 10:36:16;;;;;;;3.25;1.33;;;0.70;99.90;;;;;;5045432;28;20035;-74
2021/03/20 10:38:43;;;;;;;2.05;1.35;;;0.70;99.90;;;;;;5038250;28;20032;-73
2021/03/20 10:41:32;;;;;;;2.63;1.42;;;0.70;99.80;;;;;;5058736;28;20040;-75
2021/03/20 10:44:28;;;;;;;6.00;1.40;;;0.70;99.90;;;;;;5034030;28;20385;-74
2021/03/20 10:47:19;;;;;;;2.08;1.55;;;0.70;99.90;;;;;;5035289;28;20045;-73
2021/03/20 10:49:52;;;;;;;2.00;1.20;;;0.70;99.30;;;;;;5042368;28;20104;-72
2021/03/20 10:52:21;;;;;;;2.35;1.25;;;0.60;98.20;;;;;;5042112;28;20044;-74
2021/03/20 10:54:51;;;;;;;4.07;1.40;;;0.60;99.90;;;;;;5043565;28;20014;-73
2021/03/20 10:57:21;;;;;;;3.38;1.60;;;0.60;99.90;;;;;;5045151;28;20075;-74
2021/03/20 10:59:49;;;;;;;2.83;1.45;;;0.60;99.90;;;;;;5043911;28;20025;-74
2021/03/20 11:02:30;;;;;;;1.90;1.10;;;0.70;98.70;;;;;;5045022;28;20525;-74
2021/03/20 11:05:21;;;;;;;4.68;1.75;;;0.80;97.50;;;;;;5045736;28;20155;-73
2021/03/20 11:07:51;;;;;;;1.42;1.05;;;1.00;99.80;;;;;;5044311;28;20028;-74
2021/03/20 11:10:33;;;;;;;2.28;1.30;;;1.10;99.60;;;;;;5046254;28;20102;-74
2021/03/20 11:13:06;;;;;;;5.03;1.20;;;1.20;98.70;;;;;;5047556;28;20020;-73
2021/03/20 11:15:35;;;;;;;4.22;1.92;;;1.20;93.20;;;;;;5078615;28;20056;-74
2021/03/20 11:18:05;;;;;;;1.70;1.17;;;1.20;94.50;;;;;;5074199;28;20021;-74
2021/03/20 11:20:38;;;;;;;2.17;1.40;;;1.30;99.60;;;;;;5048428;28;20112;-74
2021/03/20 11:23:06;;;;;;;2.28;1.30;;;1.50;99.50;;;;;;5047251;28;20029;-75
2021/03/20 11:25:38;;;;;;;2.08;1.35;;;1.60;99.00;;;;;;5047702;28;20052;-74
2021/03/20 11:28:08;;;;;;;2.25;1.10;;;1.70;99.10;;;;;;5056278;28;20496;-74
2021/03/20 11:30:46;;;;;;;1.50;0.93;;;1.80;97.10;;;;;;5039947;28;20068;-74
2021/03/20 11:33:20;;;;;;;1.73;1.33;;;1.70;95.70;;;;;;5039614;28;20051;-74
2021/03/20 11:35:54;;;;;;;2.17;1.27;;;1.80;96.50;;;;;;5037813;28;20423;-74
2021/03/20 11:38:22;;;;;;;2.08;1.42;;;1.90;99.90;;;;;;5039945;28;20048;-74
2021/03/20 11:40:55;;;;;;;1.92;1.10;;;2.20;99.90;;;;;;5045134;28;20025;-73
2021/03/20 11:43:27;;;;;;;1.70;1.38;;;2.50;97.20;;;;;;5040908;28;20384;-74
2021/03/20 11:46:05;;;;;;;1.52;1.42;;;2.50;92.30;;;;;;5046391;28;20028;-74
2021/03/20 11:48:53;;;;;;;1.30;0.90;;;2.60;94.10;;;;;;5045328;28;20032;-75
2021/03/20 11:51:43;;;;;;;2.10;1.50;;;2.60;93.00;;;;;;5044129;28;20065;-73
2021/03/20 11:54:22;;;;;;;3.30;1.80;;;2.50;84.80;;;;;;5049094;28;20368;-74
2021/03/20 11:56:59;;;;;;;1.83;1.42;;;2.20;86.50;;;;;;5051505;28;20025;-73
2021/03/20 11:59:32;;;;;;;2.63;1.48;;;2.00;88.30;;;;;;5044156;28;20025;-73
2021/03/20 12:01:58;;;;;;;1.52;1.15;;;1.90;82.90;;;;;;5045350;28;20029;-72
2021/03/20 12:04:27;;;;;;;4.80;1.73;;;1.50;76.00;;;;;;5047906;28;20036;-74
2021/03/20 12:07:23;;;;;;;2.22;1.30;;;1.30;82.00;;;;;;5040461;28;20041;-74
2021/03/20 12:09:50;;;;;;;;;;;1.30;90.60;;;;;;5041669;28;20036;-73
2021/03/20 12:12:15;;;;;;;1.92;1.58;;;1.60;91.30;;;;;;5041607;28;20354;-76
2021/03/20 12:14:44;;;;;;;2.45;1.52;;;1.80;90.80;;;;;;5075267;28;20041;-74
2021/03/20 12:17:19;;;;;;;3.17;1.65;;;2.10;92.10;;;;;;5046809;28;20017;-73
2021/03/20 12:19:53;;;;;;;1.88;1.27;;;2.30;92.60;;;;;;5044603;28;20040;-73
2021/03/20 12:22:50;;;;;;;2.15;1.30;;;2.50;92.80;;;;;;5042425;28;20029;-74
2021/03/20 12:25:34;;;;;;;2.22;1.38;;;2.70;84.80;;;;;;5048560;28;20056;-73
2021/03/20 12:28:31;;;;;;;15.82;4.38;;;2.60;77.10;;;;;;5047145;28;20730;-73
2021/03/20 12:31:12;;;;;;;2.15;1.35;;;2.30;72.20;;;;;;5048311;28;20029;-74
2021/03/20 12:33:51;;;;;;;1.65;0.95;;;2.10;79.40;;;;;;5047973;28;20079;-74
2021/03/20 12:36:33;;;;;;;2.17;1.15;;;1.90;71.30;;;;;;5043086;28;20029;-74
2021/03/20 12:38:59;;;;;;;0.98;0.82;;;1.80;81.90;;;;;;5045423;28;20028;-74
2021/03/20 12:41:28;;;;;;;1.35;1.10;;;1.90;84.30;;;;;;5043919;28;20032;-75
2021/03/20 12:44:16;;;;;;;4.55;1.48;;;2.00;83.10;;;;;;5045559;28;20504;-74
2021/03/20 12:46:50;;;;;;;1.30;1.00;;;2.20;86.50;;;;;;5043641;28;20028;-74
2021/03/20 12:49:21;;;;;;;2.45;1.08;;;2.30;87.30;;;;;;5044617;28;20032;-73
2021/03/20 12:51:50;;;;;;;2.72;1.63;;;2.40;79.30;;;;;;5048212;28;20554;-74
2021/03/20 12:54:27;;;;;;;1.33;1.23;;;2.50;85.20;;;;;;5047355;28;20100;-74
2021/03/20 12:56:53;;;;;;;4.25;1.25;;;2.50;86.60;;;;;;5045574;28;20041;-73
2021/03/20 12:59:19;;;;;;;2.00;1.33;;;2.70;77.20;;;;;;5046701;28;20018;-75
2021/03/20 13:01:45;;;;;;;1.52;0.95;;;2.60;79.20;;;;;;5041700;28;20032;-74
2021/03/20 13:04:16;;;;;;;1.70;1.23;;;2.70;82.40;;;;;;5043171;28;20033;-74
2021/03/20 13:06:41;;;;;;;1.42;1.00;;;2.70;75.90;;;;;;5036831;28;20071;-74
2021/03/20 13:09:08;;;;;;;1.80;1.30;;;2.60;73.90;;;;;;5036165;28;20496;-72
2021/03/20 13:11:34;;;;;;;4.38;1.95;;;2.50;75.50;;;;;;5039442;28;20025;-74
2021/03/20 13:14:00;;;;;;;10.07;4.88;;;2.40;77.20;;;;;;5047438;28;20048;-73
2021/03/20 13:16:29;;;;;;;5.15;2.35;;;2.40;76.20;;;;;;5047536;28;20033;-73
2021/03/20 13:18:55;;;;;;;4.80;1.70;;;2.30;76.10;;;;;;5047533;28;20029;-72
2021/03/20 13:21:22;;;;;;;1.70;1.20;;;2.30;74.90;;;;;;5045210;28;20107;-73
2021/03/20 13:23:48;;;;;;;5.25;1.80;;;2.10;74.50;;;;;;5046624;28;20048;-73
2021/03/20 13:26:15;;;;;;;1.85;1.33;;;2.20;81.60;;;;;;5046134;28;20021;-73
2021/03/20 13:28:41;;;;;;;4.20;1.33;;;2.40;78.80;;;;;;5047187;28;20474;-73
2021/03/20 13:31:07;;;;;;;1.60;1.10;;;2.60;82.00;;;;;;5047034;28;20520;-73
2021/03/20 13:33:33;;;;;;;1.58;0.98;;;3.00;83.40;;;;;;5047596;28;20091;-73
2021/03/20 13:35:59;;;;;;;2.83;1.35;;;3.40;84.20;;;;;;5047994;28;20391;-74